Orsola Bottiglieri — ICQN — position and weather

sailwx.info

Track history (hours):
 
Tides and Currents Weather Stations Pressure Air Temp Water Temp Dewpoint Dewpoint Depression Visibility Wind Speed Wind Dir Waves Ship Positions

Orsola Bottiglieri

Last reported at 2015-May-21 18:29 UTC. Time now 2015-May-25 17:33 UTC.
Position S 33°25' E 031°46'.

Length 292 m; draft 10.4 m.

Type: Cargo ship. MMSI: 247304400.

Date/timePositionNaut miles runAvg speedWind from/ knotsBaromVisibWave heightAir tempDewpointWater temp
2015-May-21 18:29S 33°25' E 031°46'1112.1
2015-May-21 17:33S 33°30' E 031°34'1312.2
2015-May-21 16:28S 33°36' E 031°19'1112.2
2015-May-21 15:33S 33°42' E 031°08'1212.3
2015-May-21 14:32S 33°47' E 030°54'7412.3
2015-May-21 08:31S 34°21' E 029°34'16411.3
2015-May-20 18:04S 35°01' E 026°22'27010.1
2015-May-19 15:27S 35°11' E 020°52'1311.9
2015-May-19 14:23S 35°11' E 020°36'  
Track history (hours):
 
Tides and Currents Weather Stations Pressure Air Temp Water Temp Dewpoint Dewpoint Depression Visibility Wind Speed Wind Dir Waves Ship Positions

Orsola Bottiglieri

Last reported at 2015-May-21 18:29 UTC. Time now 2015-May-25 17:33 UTC.
Position S 33°25' E 031°46'.

Length 292 m; draft 10.4 m.

Type: Cargo ship. MMSI: 247304400.

Date/timePositionNaut miles runAvg speedWind from/ knotsBaromVisibWave heightAir tempDewpointWater temp
2015-May-21 18:29S 33°25' E 031°46'1112.1
2015-May-21 17:33S 33°30' E 031°34'1312.2
2015-May-21 16:28S 33°36' E 031°19'1112.2
2015-May-21 15:33S 33°42' E 031°08'1212.3
2015-May-21 14:32S 33°47' E 030°54'7412.3
2015-May-21 08:31S 34°21' E 029°34'16411.3
2015-May-20 18:04S 35°01' E 026°22'27010.1
2015-May-19 15:27S 35°11' E 020°52'1311.9
2015-May-19 14:23S 35°11' E 020°36'  

Dump ship's entire track history